Time;durP1;ratioP1;P1;durP2;ratioP2;P2;SDS_P1;SDS_P2;PMS_P1;PMS_P2;Temp;Humidity;BMP_temperature;BMP_pressure;BME280_temperature;BME280_humidity;BME280_pressure;Samples;Min_cycle;Max_cycle;Signal;HPM_P1;HPM_P2
2023/01/07 00:01:30;;;;;;;13.65;11.15;;;3.90;99.90;;;;;;5032243;28;20215;-82
2023/01/07 00:03:58;;;;;;;14.43;12.13;;;4.00;99.90;;;;;;5046739;28;20905;-84
2023/01/07 00:06:28;;;;;;;12.77;11.45;;;4.00;99.90;;;;;;5028774;28;20610;-82
2023/01/07 00:08:56;;;;;;;15.90;12.52;;;4.00;99.90;;;;;;5027717;28;20200;-82
2023/01/07 00:11:25;;;;;;;13.93;11.80;;;4.00;99.90;;;;;;5020441;28;20223;-84
2023/01/07 00:13:56;;;;;;;13.35;11.95;;;4.00;99.90;;;;;;5028870;28;20218;-79
2023/01/07 00:16:25;;;;;;;13.48;12.05;;;3.90;99.90;;;;;;5023831;28;20293;-83
2023/01/07 00:18:53;;;;;;;12.75;11.00;;;3.90;99.90;;;;;;5030000;28;20199;-78
2023/01/07 00:21:23;;;;;;;12.75;11.40;;;3.80;99.90;;;;;;5031381;28;20544;-80
2023/01/07 00:23:54;;;;;;;11.18;9.93;;;3.70;99.90;;;;;;5008804;28;20215;-81
2023/01/07 00:26:23;;;;;;;10.18;9.18;;;3.70;99.90;;;;;;5029505;28;20280;-84
2023/01/07 00:28:52;;;;;;;9.68;8.73;;;3.70;99.90;;;;;;5029797;28;20227;-77
2023/01/07 00:31:23;;;;;;;11.27;10.15;;;3.70;99.90;;;;;;5027763;28;20277;-77
2023/01/07 00:34:05;;;;;;;9.18;8.23;;;3.60;99.90;;;;;;5026382;28;20220;-81
2023/01/07 00:36:34;;;;;;;9.57;8.35;;;3.60;99.90;;;;;;5030273;28;20214;-77
2023/01/07 00:39:05;;;;;;;9.57;8.50;;;3.60;99.90;;;;;;5034813;28;20195;-76
2023/01/07 00:41:33;;;;;;;9.35;8.38;;;3.60;99.90;;;;;;5026728;28;20258;-77
2023/01/07 00:44:00;;;;;;;10.32;8.98;;;3.60;99.90;;;;;;5030478;28;20424;-77
2023/01/07 00:46:29;;;;;;;9.55;8.38;;;3.60;99.90;;;;;;5029501;28;20319;-78
2023/01/07 00:48:57;;;;;;;9.15;7.65;;;3.60;99.90;;;;;;5029559;28;20913;-77
2023/01/07 00:51:24;;;;;;;9.85;7.70;;;3.60;99.90;;;;;;5029078;28;20620;-81
2023/01/07 00:53:52;;;;;;;9.18;8.27;;;3.60;99.90;;;;;;5044222;28;20231;-77
2023/01/07 00:56:19;;;;;;;8.02;7.22;;;3.60;99.90;;;;;;5031963;28;20219;-82
2023/01/07 00:58:47;;;;;;;8.63;7.72;;;3.60;99.90;;;;;;5036048;28;20195;-77
2023/01/07 01:01:15;;;;;;;7.88;7.18;;;3.60;99.90;;;;;;5033551;28;20219;-77
2023/01/07 01:03:44;;;;;;;8.00;7.28;;;3.60;99.90;;;;;;5032859;28;20226;-76
2023/01/07 01:06:14;;;;;;;9.07;8.18;;;3.60;99.90;;;;;;5028004;28;20231;-81
2023/01/07 01:08:42;;;;;;;7.85;7.15;;;3.60;99.90;;;;;;5029045;28;20207;-79
2023/01/07 01:11:12;;;;;;;9.00;8.13;;;3.60;99.90;;;;;;5021219;28;20314;-78
2023/01/07 01:13:39;;;;;;;9.48;8.48;;;3.60;99.90;;;;;;5033237;28;20223;-76
2023/01/07 01:16:12;;;;;;;9.60;8.18;;;3.60;99.90;;;;;;5033029;28;20216;-77
2023/01/07 01:18:39;;;;;;;9.43;8.45;;;3.60;99.90;;;;;;5026558;28;20212;-79
2023/01/07 01:21:10;;;;;;;9.93;8.35;;;3.60;99.90;;;;;;5029011;28;20219;-78
2023/01/07 01:23:38;;;;;;;9.32;8.32;;;3.60;99.90;;;;;;5027369;28;20277;-77
2023/01/07 01:26:07;;;;;;;8.90;7.97;;;3.60;99.90;;;;;;5029938;28;20230;-77
2023/01/07 01:28:34;;;;;;;8.43;7.63;;;3.60;99.90;;;;;;5030139;28;20192;-79
2023/01/07 01:31:02;;;;;;;8.07;7.28;;;3.60;99.90;;;;;;5035752;28;20642;-79
2023/01/07 01:33:29;;;;;;;8.45;7.60;;;3.60;99.90;;;;;;5028128;28;20220;-78
2023/01/07 01:35:57;;;;;;;7.60;6.80;;;3.60;99.90;;;;;;5029850;28;20268;-77
2023/01/07 01:38:26;;;;;;;7.95;7.15;;;3.60;99.90;;;;;;5025604;28;20348;-77
2023/01/07 01:40:53;;;;;;;7.60;6.78;;;3.60;99.90;;;;;;5034772;28;20333;-78
2023/01/07 01:43:31;;;;;;;8.05;7.25;;;3.50;99.90;;;;;;5030652;28;20215;-78
2023/01/07 01:46:01;;;;;;;7.53;6.85;;;3.60;99.90;;;;;;5023770;28;20218;-77
2023/01/07 01:48:28;;;;;;;6.80;6.15;;;3.60;99.90;;;;;;5025840;28;20708;-78
2023/01/07 01:50:56;;;;;;;7.10;6.43;;;3.60;99.90;;;;;;5035442;28;20216;-77
2023/01/07 01:53:28;;;;;;;6.40;5.80;;;3.60;99.90;;;;;;5033337;28;20712;-79
2023/01/07 01:56:00;;;;;;;7.05;6.45;;;3.50;99.90;;;;;;5032028;28;20269;-78
2023/01/07 01:58:31;;;;;;;5.80;5.38;;;3.50;99.90;;;;;;5028138;28;20608;-79
2023/01/07 02:00:58;;;;;;;6.28;5.78;;;3.50;99.90;;;;;;5028354;28;20219;-79
2023/01/07 02:03:29;;;;;;;5.78;5.28;;;3.50;99.90;;;;;;5032505;28;20215;-75
2023/01/07 02:05:57;;;;;;;5.15;4.75;;;3.50;99.90;;;;;;5031614;28;20223;-81
2023/01/07 02:08:24;;;;;;;6.07;5.55;;;3.50;99.90;;;;;;5026659;28;20203;-80
2023/01/07 02:11:05;;;;;;;5.97;5.47;;;3.50;99.90;;;;;;5041453;28;20685;-77
2023/01/07 02:13:44;;;;;;;7.93;6.85;;;3.50;99.90;;;;;;5004044;28;20219;-78
2023/01/07 02:16:28;;;;;;;7.15;6.53;;;3.50;99.90;;;;;;5031329;28;20626;-79
2023/01/07 02:19:24;;;;;;;7.72;6.97;;;3.50;99.90;;;;;;5043740;28;20340;-78
2023/01/07 02:22:00;;;;;;;8.48;7.65;;;3.50;99.90;;;;;;5033701;28;20212;-80
2023/01/07 02:24:53;;;;;;;7.38;6.68;;;3.40;99.90;;;;;;5038505;28;20483;-82
2023/01/07 02:27:41;;;;;;;7.07;6.43;;;3.40;99.90;;;;;;5038237;28;20261;-81
2023/01/07 02:30:39;;;;;;;6.45;5.88;;;3.30;99.90;;;;;;5036825;28;20219;-82
2023/01/07 02:33:26;;;;;;;6.80;6.20;;;3.30;99.90;;;;;;5051904;28;20207;-78
2023/01/07 02:36:21;;;;;;;6.40;5.80;;;3.30;99.90;;;;;;5040623;28;20584;-77
2023/01/07 02:39:04;;;;;;;6.50;5.90;;;3.30;99.90;;;;;;5030264;28;20755;-81
2023/01/07 02:41:44;;;;;;;6.80;6.20;;;3.30;99.90;;;;;;5034218;28;20306;-82
2023/01/07 02:44:20;;;;;;;6.18;5.68;;;3.30;99.90;;;;;;5036168;28;20218;-79
2023/01/07 02:46:53;;;;;;;6.22;5.70;;;3.30;99.90;;;;;;5038248;28;20199;-80
2023/01/07 02:49:24;;;;;;;6.45;5.82;;;3.40;99.90;;;;;;5039396;28;20211;-81
2023/01/07 02:51:51;;;;;;;7.43;6.72;;;3.40;99.90;;;;;;5021271;28;20200;-80
2023/01/07 02:54:22;;;;;;;6.47;5.88;;;3.40;99.90;;;;;;5021943;28;20227;-79
2023/01/07 02:57:19;;;;;;;5.55;5.05;;;3.40;99.90;;;;;;5035065;28;20200;-79
2023/01/07 03:00:02;;;;;;;6.50;5.90;;;3.30;99.90;;;;;;5030944;28;20219;-78
2023/01/07 03:02:49;;;;;;;5.82;5.32;;;3.30;99.90;;;;;;5040010;28;20199;-78
2023/01/07 03:05:55;;;;;;;6.32;5.82;;;3.30;99.90;;;;;;5035283;28;20226;-78
2023/01/07 03:08:43;;;;;;;5.80;5.30;;;3.20;99.90;;;;;;4976273;28;20205;-78
2023/01/07 03:11:11;;;;;;;5.72;5.22;;;3.20;99.90;;;;;;4974858;28;20218;-76
2023/01/07 03:13:45;;;;;;;5.43;4.93;;;3.10;99.90;;;;;;5006063;28;20220;-81
2023/01/07 03:16:18;;;;;;;6.35;5.70;;;3.10;99.90;;;;;;5033093;28;20719;-80
2023/01/07 03:18:50;;;;;;;5.40;5.00;;;3.10;99.90;;;;;;5038804;28;20204;-79
2023/01/07 03:21:24;;;;;;;5.10;4.60;;;3.10;99.90;;;;;;5044187;28;20219;-78
2023/01/07 03:23:56;;;;;;;5.07;4.68;;;3.10;99.90;;;;;;5036537;28;20222;-80
2023/01/07 03:26:27;;;;;;;5.57;5.15;;;3.10;99.90;;;;;;5040963;28;20223;-79
2023/01/07 03:28:56;;;;;;;5.40;4.95;;;3.10;99.90;;;;;;5041108;28;20758;-79
2023/01/07 03:31:23;;;;;;;5.10;4.70;;;3.10;99.90;;;;;;5036939;28;20246;-78
2023/01/07 03:33:55;;;;;;;5.03;4.63;;;3.10;99.90;;;;;;5036343;28;20212;-81
2023/01/07 03:36:28;;;;;;;5.60;5.13;;;3.10;99.90;;;;;;5042174;28;20222;-81
2023/01/07 03:38:56;;;;;;;6.20;5.70;;;3.10;99.90;;;;;;5033603;28;20204;-80
2023/01/07 03:44:09;;;;;;;5.70;5.20;;;3.10;99.90;;;;;;5038642;28;20715;-77
2023/01/07 03:46:37;;;;;;;5.35;4.95;;;3.10;99.90;;;;;;5036710;28;20270;-79
2023/01/07 03:49:05;;;;;;;5.40;5.00;;;3.10;99.90;;;;;;5036917;28;20199;-77
2023/01/07 03:51:33;;;;;;;4.97;4.68;;;3.00;99.90;;;;;;5037230;28;20579;-81
2023/01/07 03:54:01;;;;;;;5.45;5.05;;;3.10;99.90;;;;;;5040800;28;20237;-77
2023/01/07 03:56:28;;;;;;;5.82;5.38;;;3.00;99.90;;;;;;4994803;28;20292;-77
2023/01/07 03:58:56;;;;;;;5.20;4.70;;;3.10;99.90;;;;;;5041843;28;20199;-77
2023/01/07 04:01:23;;;;;;;4.10;3.80;;;3.00;99.90;;;;;;5043726;28;20210;-78
2023/01/07 04:03:50;;;;;;;4.50;4.20;;;3.00;99.90;;;;;;5045703;28;20230;-77
2023/01/07 04:06:17;;;;;;;5.18;4.80;;;3.00;99.90;;;;;;5034469;28;20585;-79
2023/01/07 04:08:46;;;;;;;4.45;4.13;;;2.90;99.90;;;;;;5039885;28;20640;-79
2023/01/07 04:11:13;;;;;;;4.97;4.57;;;3.00;99.90;;;;;;5042107;28;20616;-76
2023/01/07 04:13:41;;;;;;;4.38;4.07;;;3.00;99.90;;;;;;5028948;28;20277;-74
2023/01/07 04:16:09;;;;;;;4.55;4.25;;;3.00;99.90;;;;;;5037657;28;20215;-76
2023/01/07 04:18:36;;;;;;;5.35;4.95;;;3.00;99.90;;;;;;5034677;28;20222;-78
2023/01/07 04:21:03;;;;;;;4.43;4.13;;;3.00;99.90;;;;;;5031718;28;20701;-78
2023/01/07 04:23:30;;;;;;;4.88;4.47;;;3.00;99.90;;;;;;5031006;28;20219;-78
2023/01/07 04:25:59;;;;;;;4.75;4.35;;;3.00;99.90;;;;;;5030169;28;20225;-78
2023/01/07 04:28:28;;;;;;;5.85;5.35;;;2.90;99.90;;;;;;5040055;28;20196;-79
2023/01/07 04:30:58;;;;;;;5.75;5.25;;;2.90;99.90;;;;;;5042472;28;20593;-80
2023/01/07 04:33:25;;;;;;;8.27;6.07;;;2.90;99.90;;;;;;5043407;28;20237;-78
2023/01/07 04:35:52;;;;;;;5.40;4.90;;;2.80;99.90;;;;;;5040056;28;20315;-78
2023/01/07 04:38:20;;;;;;;6.18;5.57;;;2.80;99.90;;;;;;5034597;28;20207;-76
2023/01/07 04:40:48;;;;;;;5.68;5.15;;;2.80;99.90;;;;;;5037963;28;20219;-77
2023/01/07 04:43:17;;;;;;;6.70;6.07;;;2.80;99.90;;;;;;5040541;28;20223;-79
2023/01/07 04:45:44;;;;;;;6.22;5.63;;;2.80;99.90;;;;;;5040084;28;20632;-78
2023/01/07 04:48:11;;;;;;;6.53;5.93;;;2.80;99.90;;;;;;5039756;28;20256;-78
2023/01/07 04:50:38;;;;;;;6.20;5.70;;;2.80;99.90;;;;;;5022262;28;20630;-77
2023/01/07 04:53:08;;;;;;;5.85;5.45;;;2.70;99.90;;;;;;5039939;28;20669;-79
2023/01/07 04:55:35;;;;;;;5.35;4.95;;;2.70;99.90;;;;;;5038831;28;20226;-78
2023/01/07 04:58:03;;;;;;;5.88;5.38;;;2.70;99.90;;;;;;5045069;28;20202;-81
2023/01/07 05:00:32;;;;;;;5.80;5.40;;;2.70;99.90;;;;;;5033418;28;20345;-79
2023/01/07 05:02:59;;;;;;;5.32;4.85;;;2.70;99.90;;;;;;5036137;28;20466;-78
2023/01/07 05:05:27;;;;;;;5.60;5.13;;;2.70;99.90;;;;;;5040414;28;20223;-80
2023/01/07 05:07:54;;;;;;;5.13;4.82;;;2.70;99.90;;;;;;5018321;28;20268;-78
2023/01/07 05:10:21;;;;;;;5.47;5.07;;;2.60;99.90;;;;;;5038568;28;20281;-77
2023/01/07 05:12:49;;;;;;;5.43;5.05;;;2.60;99.90;;;;;;5036477;28;20197;-78
2023/01/07 05:15:16;;;;;;;5.20;4.80;;;2.60;99.90;;;;;;5045819;28;20298;-79
2023/01/07 05:17:45;;;;;;;4.97;4.57;;;2.60;99.90;;;;;;5043282;28;20688;-79
2023/01/07 05:20:14;;;;;;;8.70;7.38;;;2.60;99.90;;;;;;5038159;28;20219;-78
2023/01/07 05:22:41;;;;;;;14.70;9.52;;;2.60;99.90;;;;;;5042747;28;20192;-78
2023/01/07 05:25:09;;;;;;;10.23;7.90;;;2.60;99.90;;;;;;5038833;28;20234;-79
2023/01/07 05:27:37;;;;;;;9.15;6.30;;;2.60;99.90;;;;;;5039318;28;20204;-79
2023/01/07 05:30:06;;;;;;;7.28;5.93;;;2.60;99.90;;;;;;5042755;28;20215;-77
2023/01/07 05:32:33;;;;;;;6.38;5.20;;;2.50;99.90;;;;;;5048315;28;20199;-78
2023/01/07 05:35:02;;;;;;;6.15;5.57;;;2.60;99.90;;;;;;5041997;28;20238;-79
2023/01/07 05:37:30;;;;;;;5.18;4.68;;;2.50;99.90;;;;;;5039139;28;20688;-79
2023/01/07 05:39:57;;;;;;;5.28;4.80;;;2.50;99.90;;;;;;5036622;28;20244;-79
2023/01/07 05:42:25;;;;;;;4.95;4.53;;;2.50;99.90;;;;;;5044563;28;20202;-79
2023/01/07 05:44:54;;;;;;;4.60;4.20;;;2.50;99.90;;;;;;5044255;28;20840;-77
2023/01/07 05:47:22;;;;;;;5.13;4.72;;;2.40;99.90;;;;;;5043027;28;20575;-78
2023/01/07 05:49:51;;;;;;;4.95;4.55;;;2.40;99.90;;;;;;5045220;28;20215;-77
2023/01/07 05:52:20;;;;;;;5.05;4.57;;;2.40;99.90;;;;;;5043313;28;20210;-80
2023/01/07 05:54:47;;;;;;;4.63;4.30;;;2.40;99.90;;;;;;5040994;28;20689;-80
2023/01/07 05:57:15;;;;;;;5.57;5.07;;;2.30;99.90;;;;;;5046173;28;20399;-78
2023/01/07 05:59:43;;;;;;;5.75;5.22;;;2.30;99.90;;;;;;5043649;28;22192;-77
2023/01/07 06:02:10;;;;;;;5.38;4.97;;;2.30;99.90;;;;;;5041399;28;20249;-80
2023/01/07 06:04:37;;;;;;;4.93;4.53;;;2.20;99.90;;;;;;5044149;28;20234;-78
2023/01/07 06:07:05;;;;;;;6.18;5.68;;;2.20;99.90;;;;;;5043598;28;20697;-77
2023/01/07 06:09:34;;;;;;;5.47;4.97;;;2.20;99.90;;;;;;5038352;28;20220;-81
2023/01/07 06:12:02;;;;;;;5.30;4.90;;;2.10;99.90;;;;;;5037872;28;20196;-78
2023/01/07 06:14:30;;;;;;;5.10;4.70;;;2.00;99.90;;;;;;5032439;28;20242;-77
2023/01/07 06:16:58;;;;;;;5.28;4.88;;;2.00;99.90;;;;;;5044672;28;20563;-79
2023/01/07 06:19:26;;;;;;;5.13;4.72;;;2.00;99.90;;;;;;5032947;28;20199;-78
2023/01/07 06:21:53;;;;;;;5.05;4.55;;;1.90;99.90;;;;;;5047349;28;20194;-77
2023/01/07 06:24:21;;;;;;;5.40;4.90;;;1.90;99.90;;;;;;5048463;28;20697;-79
2023/01/07 06:26:50;;;;;;;4.93;4.63;;;1.90;99.90;;;;;;5042741;28;20326;-79
2023/01/07 06:29:17;;;;;;;5.68;5.18;;;1.80;99.90;;;;;;5041043;28;20203;-78
2023/01/07 06:31:45;;;;;;;5.00;4.60;;;1.80;99.90;;;;;;5039486;28;20199;-74
2023/01/07 06:34:12;;;;;;;5.75;5.35;;;1.70;99.90;;;;;;5034216;28;20227;-79
2023/01/07 06:36:39;;;;;;;5.68;5.22;;;1.70;99.90;;;;;;5031826;28;20189;-77
2023/01/07 06:39:06;;;;;;;5.18;4.78;;;1.70;99.90;;;;;;5030357;28;20192;-78
2023/01/07 06:41:34;;;;;;;5.47;5.00;;;1.70;99.90;;;;;;5032046;28;20226;-77
2023/01/07 06:44:02;;;;;;;5.70;5.20;;;1.60;99.90;;;;;;5043935;28;20288;-76
2023/01/07 06:46:30;;;;;;;5.20;4.80;;;1.60;99.90;;;;;;5033947;28;20250;-77
2023/01/07 06:48:57;;;;;;;5.63;5.22;;;1.60;99.90;;;;;;5030080;28;20550;-77
2023/01/07 06:51:26;;;;;;;6.25;5.75;;;1.60;99.90;;;;;;5032707;28;20590;-75
2023/01/07 06:53:53;;;;;;;6.15;5.65;;;1.70;99.90;;;;;;5035224;28;20237;-76
2023/01/07 06:56:21;;;;;;;5.95;5.40;;;1.70;99.90;;;;;;5038336;28;20212;-77
2023/01/07 06:58:48;;;;;;;6.72;6.05;;;1.80;99.90;;;;;;5041293;28;20206;-76
2023/01/07 07:01:17;;;;;;;6.47;5.97;;;1.80;99.90;;;;;;5036760;28;20227;-76
2023/01/07 07:03:45;;;;;;;7.13;6.50;;;1.80;99.90;;;;;;5036920;28;20220;-75
2023/01/07 07:06:12;;;;;;;6.43;5.90;;;1.80;99.90;;;;;;5034750;28;20691;-76
2023/01/07 07:08:39;;;;;;;7.05;6.45;;;1.80;99.90;;;;;;5036275;28;20200;-75
2023/01/07 07:11:08;;;;;;;7.07;6.47;;;1.90;99.90;;;;;;5040878;28;20221;-77
2023/01/07 07:13:35;;;;;;;15.98;14.38;;;1.90;99.90;;;;;;5035114;28;20566;-75
2023/01/07 07:16:03;;;;;;;16.20;14.70;;;1.90;99.90;;;;;;5028801;28;20230;-75
2023/01/07 07:18:32;;;;;;;12.30;11.15;;;1.90;99.90;;;;;;5038831;28;20463;-74
2023/01/07 07:20:59;;;;;;;11.07;10.07;;;1.90;99.90;;;;;;5039786;28;20229;-76
2023/01/07 07:23:26;;;;;;;10.80;9.82;;;1.90;99.90;;;;;;5036841;28;20223;-75
2023/01/07 07:25:54;;;;;;;10.02;9.13;;;1.90;99.90;;;;;;5041473;28;20214;-76
2023/01/07 07:28:21;;;;;;;10.15;9.15;;;1.90;99.90;;;;;;5037258;28;20199;-76
2023/01/07 07:30:48;;;;;;;9.35;8.55;;;1.90;99.90;;;;;;5037826;28;20633;-77
2023/01/07 07:33:17;;;;;;;8.57;7.80;;;2.00;99.90;;;;;;5051183;28;20219;-75
2023/01/07 07:35:48;;;;;;;8.80;8.00;;;2.00;99.90;;;;;;5038071;28;20225;-74
2023/01/07 07:38:17;;;;;;;8.90;8.05;;;1.90;99.90;;;;;;5039418;28;20195;-78
2023/01/07 07:40:45;;;;;;;8.43;7.63;;;1.90;99.90;;;;;;5037762;28;20258;-76
2023/01/07 07:43:12;;;;;;;7.80;7.20;;;1.80;99.90;;;;;;5040387;28;20229;-76
2023/01/07 07:45:40;;;;;;;8.35;7.65;;;1.80;99.90;;;;;;5034203;28;20215;-76
2023/01/07 07:48:07;;;;;;;8.27;7.57;;;1.80;99.90;;;;;;5043812;28;20231;-77
2023/01/07 07:50:34;;;;;;;8.32;7.63;;;1.90;99.90;;;;;;5034891;28;20219;-75
2023/01/07 07:53:04;;;;;;;10.27;9.32;;;1.90;99.90;;;;;;5037314;28;20215;-76
2023/01/07 07:55:31;;;;;;;10.68;9.65;;;1.90;99.90;;;;;;5040363;28;20215;-77
2023/01/07 07:57:58;;;;;;;9.73;8.93;;;2.00;99.90;;;;;;5029390;28;20196;-76
2023/01/07 08:00:25;;;;;;;13.40;12.20;;;2.00;99.90;;;;;;5035319;28;20232;-75
2023/01/07 08:02:57;;;;;;;14.50;13.20;;;2.00;99.90;;;;;;5037602;28;20602;-76
2023/01/07 08:05:24;;;;;;;12.38;11.23;;;2.00;99.90;;;;;;5033320;28;20224;-75
2023/01/07 08:07:52;;;;;;;11.57;10.50;;;2.10;99.90;;;;;;5039473;28;20227;-77
2023/01/07 08:10:21;;;;;;;11.15;9.77;;;2.20;99.90;;;;;;5037577;28;20700;-76
2023/01/07 08:12:49;;;;;;;11.32;10.23;;;2.30;99.90;;;;;;5039684;28;20226;-77
2023/01/07 08:15:16;;;;;;;10.05;9.15;;;2.30;99.90;;;;;;5034242;28;20274;-78
2023/01/07 08:17:44;;;;;;;8.85;8.15;;;2.40;99.90;;;;;;5044853;28;20199;-76
2023/01/07 08:20:12;;;;;;;8.52;7.72;;;2.50;99.90;;;;;;5035978;28;20226;-78
2023/01/07 08:22:40;;;;;;;9.07;8.18;;;2.60;99.90;;;;;;5031541;28;20215;-74
2023/01/07 08:25:09;;;;;;;9.57;8.75;;;2.70;99.90;;;;;;5039042;28;20227;-77
2023/01/07 08:27:38;;;;;;;9.88;8.98;;;3.10;99.90;;;;;;5036921;28;20222;-78
2023/01/07 08:30:06;;;;;;;9.27;8.38;;;3.50;99.90;;;;;;5033780;28;20712;-77
2023/01/07 08:32:33;;;;;;;9.85;8.95;;;3.90;99.90;;;;;;5024959;28;20196;-76
2023/01/07 08:35:01;;;;;;;8.48;7.78;;;4.30;99.90;;;;;;5028282;28;20230;-76
2023/01/07 08:37:31;;;;;;;9.27;8.40;;;4.60;99.90;;;;;;5033942;28;20198;-76
2023/01/07 08:39:59;;;;;;;8.90;8.00;;;4.90;99.90;;;;;;5030668;28;20219;-78
2023/01/07 08:42:28;;;;;;;9.45;8.20;;;5.20;99.90;;;;;;5027507;28;20203;-77
2023/01/07 08:44:57;;;;;;;8.77;7.97;;;5.60;99.90;;;;;;5041195;28;20222;-79
2023/01/07 08:47:26;;;;;;;8.52;7.72;;;6.10;99.90;;;;;;5037170;28;20223;-78
2023/01/07 08:49:54;;;;;;;8.70;7.88;;;6.80;99.90;;;;;;5028385;28;20223;-78
2023/01/07 08:52:21;;;;;;;8.10;7.30;;;7.40;99.90;;;;;;5030706;28;20192;-77
2023/01/07 08:54:51;;;;;;;7.85;7.03;;;7.80;99.90;;;;;;5033174;28;20243;-84
2023/01/07 08:57:19;;;;;;;8.13;7.32;;;8.30;99.90;;;;;;5029002;28;20201;-77
2023/01/07 08:59:47;;;;;;;7.18;6.55;;;8.90;99.90;;;;;;5033703;28;20638;-80
2023/01/07 09:02:17;;;;;;;8.20;7.40;;;9.30;99.90;;;;;;5034035;28;20208;-79
2023/01/07 09:07:13;;;;;;;7.45;6.78;;;10.30;99.90;;;;;;4988030;28;20267;-78
2023/01/07 09:09:41;;;;;;;8.23;7.43;;;10.70;99.90;;;;;;4992480;28;20247;-78
2023/01/07 09:12:09;;;;;;;7.63;6.93;;;10.80;99.90;;;;;;4990467;28;20197;-78
2023/01/07 09:17:04;;;;;;;7.57;6.88;;;10.50;99.90;;;;;;4979455;28;20212;-74
2023/01/07 09:19:32;;;;;;;7.47;6.78;;;10.40;99.90;;;;;;4986634;28;20243;-72
2023/01/07 09:22:00;;;;;;;7.90;6.75;;;11.00;99.90;;;;;;4988128;28;20223;-75
2023/01/07 09:24:27;;;;;;;6.68;6.07;;;11.50;99.90;;;;;;4984853;28;21829;-74
2023/01/07 09:26:54;;;;;;;7.72;6.93;;;12.30;99.90;;;;;;4989412;28;20232;-75
2023/01/07 09:29:21;;;;;;;7.20;6.50;;;12.90;99.90;;;;;;4987312;28;20215;-75
2023/01/07 09:31:48;;;;;;;7.78;7.07;;;13.80;99.90;;;;;;4985940;28;20235;-74
2023/01/07 09:34:15;;;;;;;7.38;6.63;;;14.60;99.90;;;;;;4984770;28;20263;-74
2023/01/07 09:36:43;;;;;;;6.95;6.25;;;15.20;99.90;;;;;;4992887;28;20682;-74
2023/01/07 09:39:11;;;;;;;5.80;5.30;;;15.70;99.90;;;;;;4993344;28;20256;-74
2023/01/07 09:41:49;;;;;;;6.00;5.40;;;16.60;99.90;;;;;;4991058;28;20217;-74
2023/01/07 09:44:24;;;;;;;7.03;6.43;;;17.00;99.90;;;;;;4987788;28;20200;-75
2023/01/07 09:46:53;;;;;;;8.68;6.22;;;17.70;99.90;;;;;;4987901;28;20284;-75
2023/01/07 09:49:23;;;;;;;7.05;6.45;;;17.60;99.90;;;;;;4990951;28;20205;-76
2023/01/07 09:51:57;;;;;;;6.68;6.07;;;17.60;99.90;;;;;;4986140;28;20232;-77
2023/01/07 09:54:29;;;;;;;6.93;6.22;;;18.30;99.90;;;;;;4991319;28;20197;-76
2023/01/07 09:56:56;;;;;;;8.93;6.53;;;18.40;99.90;;;;;;4991743;28;20739;-75
2023/01/07 09:59:23;;;;;;;6.65;6.05;;;18.50;99.90;;;;;;4987524;28;20216;-75
2023/01/07 10:01:55;;;;;;;7.30;6.28;;;17.90;99.90;;;;;;4988960;28;20263;-75
2023/01/07 10:04:40;;;;;;;6.93;6.32;;;17.30;99.90;;;;;;4989842;28;20212;-77
2023/01/07 10:07:21;;;;;;;7.35;6.55;;;16.60;99.90;;;;;;4984776;28;20815;-74
2023/01/07 10:10:04;;;;;;;8.43;7.18;;;15.20;99.90;;;;;;4984252;28;20229;-77
2023/01/07 10:12:38;;;;;;;8.38;7.47;;;14.00;99.90;;;;;;4988352;28;20204;-77
2023/01/07 10:15:42;;;;;;;7.40;6.80;;;12.90;99.90;;;;;;4989721;28;20638;-79
2023/01/07 10:18:43;;;;;;;8.95;7.53;;;12.00;99.90;;;;;;4979662;28;20275;-78
2023/01/07 10:21:20;;;;;;;7.93;7.20;;;11.60;99.90;;;;;;4989587;28;20225;-76
2023/01/07 10:23:53;;;;;;;6.80;6.20;;;11.40;99.90;;;;;;4989683;28;20742;-75
2023/01/07 10:26:30;;;;;;;7.40;6.70;;;11.00;99.90;;;;;;4991455;28;20714;-75
2023/01/07 10:29:02;;;;;;;8.82;7.10;;;10.60;99.90;;;;;;4988619;28;20919;-74
2023/01/07 10:31:30;;;;;;;7.55;6.85;;;10.50;99.90;;;;;;4988150;28;20229;-76
2023/01/07 10:33:57;;;;;;;8.00;7.28;;;10.70;99.90;;;;;;4987567;28;20208;-76
2023/01/07 10:36:27;;;;;;;8.43;7.07;;;11.00;99.90;;;;;;4988026;28;20630;-73
2023/01/07 10:39:07;;;;;;;8.38;7.57;;;11.10;99.90;;;;;;4987072;28;20253;-78
2023/01/07 10:41:46;;;;;;;9.68;7.65;;;11.00;99.90;;;;;;4989886;28;20221;-72
2023/01/07 10:44:41;;;;;;;11.02;8.80;;;10.90;99.90;;;;;;4992594;28;20197;-77
2023/01/07 10:47:20;;;;;;;9.25;8.23;;;10.90;99.90;;;;;;4989561;28;20197;-77
2023/01/07 10:50:02;;;;;;;8.85;8.05;;;10.80;99.90;;;;;;4991304;28;20231;-75
2023/01/07 10:52:38;;;;;;;9.00;8.10;;;10.90;99.90;;;;;;4983400;28;20198;-72
2023/01/07 10:55:34;;;;;;;8.40;7.60;;;10.70;99.90;;;;;;4987138;28;20216;-73
2023/01/07 10:58:02;;;;;;;9.05;8.15;;;10.90;99.90;;;;;;4991055;28;20244;-77
2023/01/07 11:00:29;;;;;;;8.07;7.32;;;10.80;99.90;;;;;;4987136;28;20228;-79
2023/01/07 11:02:59;;;;;;;8.05;6.88;;;10.80;99.90;;;;;;4988708;28;20209;-76
2023/01/07 11:05:34;;;;;;;8.43;7.30;;;10.60;99.90;;;;;;4986532;28;20699;-77
2023/01/07 11:08:03;;;;;;;8.85;7.57;;;10.60;99.90;;;;;;4988462;28;20239;-74
2023/01/07 11:10:36;;;;;;;8.60;7.80;;;10.50;99.90;;;;;;4988634;28;20231;-76
2023/01/07 11:13:06;;;;;;;7.80;7.10;;;10.50;99.90;;;;;;4988517;28;20208;-73
2023/01/07 11:15:37;;;;;;;7.68;7.00;;;10.60;99.90;;;;;;4990555;28;20284;-76
2023/01/07 11:18:10;;;;;;;8.23;6.90;;;10.80;99.90;;;;;;4990159;28;20200;-76
2023/01/07 11:20:49;;;;;;;8.60;7.70;;;10.90;99.90;;;;;;4990469;28;20232;-74
2023/01/07 11:23:34;;;;;;;8.20;7.38;;;10.80;99.90;;;;;;4987124;28;20231;-77
2023/01/07 11:26:16;;;;;;;8.63;7.82;;;10.80;99.90;;;;;;4986371;28;20224;-78
2023/01/07 11:28:51;;;;;;;8.93;7.60;;;10.60;99.90;;;;;;4988573;28;20224;-72
2023/01/07 11:31:18;;;;;;;8.07;7.28;;;10.70;99.90;;;;;;4991472;28;20677;-74
2023/01/07 11:33:49;;;;;;;7.72;7.10;;;10.70;99.90;;;;;;4990306;28;20248;-73
2023/01/07 11:36:17;;;;;;;8.40;7.60;;;10.70;99.90;;;;;;4986571;28;20223;-77
2023/01/07 11:38:44;;;;;;;8.45;7.68;;;10.60;99.90;;;;;;4986102;28;20200;-75
2023/01/07 11:41:24;;;;;;;9.00;8.13;;;10.30;99.90;;;;;;4985786;28;20229;-77
2023/01/07 11:43:53;;;;;;;8.43;7.55;;;10.40;99.90;;;;;;4984999;28;20333;-76
2023/01/07 11:46:22;;;;;;;7.72;7.03;;;10.50;99.90;;;;;;4988953;28;20244;-75
2023/01/07 11:48:52;;;;;;;8.13;7.32;;;10.60;99.90;;;;;;4988837;28;20228;-73
2023/01/07 11:51:21;;;;;;;7.80;7.00;;;10.70;99.90;;;;;;4990598;28;20224;-73
2023/01/07 11:53:53;;;;;;;8.05;7.13;;;10.90;99.90;;;;;;4988098;28;20200;-76
2023/01/07 11:56:27;;;;;;;7.85;7.05;;;10.80;99.90;;;;;;4984985;28;20220;-73
2023/01/07 11:59:30;;;;;;;8.52;7.72;;;10.70;99.90;;;;;;4988859;28;20272;-77
2023/01/07 12:01:59;;;;;;;9.85;8.30;;;10.80;99.90;;;;;;4987259;28;20224;-79
2023/01/07 12:04:29;;;;;;;8.45;7.65;;;10.80;99.90;;;;;;4983271;28;20198;-77
2023/01/07 12:06:59;;;;;;;9.30;8.43;;;10.80;99.90;;;;;;4986491;28;20209;-74
2023/01/07 12:09:34;;;;;;;9.48;8.30;;;10.50;99.90;;;;;;4984075;28;20718;-76
2023/01/07 12:14:53;;;;;;;9.00;8.10;;;10.40;99.90;;;;;;4984288;28;20214;-76
2023/01/07 12:17:24;;;;;;;8.70;7.90;;;10.60;99.90;;;;;;4981239;28;20571;-75
2023/01/07 12:20:18;;;;;;;8.93;7.97;;;10.80;99.90;;;;;;4975642;28;20249;-75
2023/01/07 12:22:53;;;;;;;9.68;8.50;;;11.10;99.90;;;;;;4985540;28;20620;-76
2023/01/07 12:25:30;;;;;;;9.27;8.38;;;10.80;99.90;;;;;;4981191;28;20220;-75
2023/01/07 12:28:09;;;;;;;9.35;8.52;;;10.30;99.90;;;;;;4983141;28;20220;-75
2023/01/07 12:31:03;;;;;;;9.27;8.38;;;9.80;99.90;;;;;;4987218;28;20635;-73
2023/01/07 12:33:51;;;;;;;10.10;9.10;;;9.50;99.90;;;;;;4950594;28;20200;-72
2023/01/07 12:36:22;;;;;;;10.27;8.85;;;9.60;99.90;;;;;;4985114;28;20220;-73
2023/01/07 12:38:51;;;;;;;10.05;9.15;;;9.40;99.90;;;;;;4984437;28;20197;-73
2023/01/07 12:41:22;;;;;;;11.35;8.40;;;9.20;99.90;;;;;;4986147;28;20227;-74
2023/01/07 12:43:59;;;;;;;9.20;8.30;;;8.90;99.90;;;;;;4981433;28;20284;-76
2023/01/07 12:46:31;;;;;;;9.10;8.20;;;8.90;99.90;;;;;;4986687;28;20220;-73
2023/01/07 12:49:05;;;;;;;8.60;7.80;;;8.80;99.90;;;;;;4983937;28;20232;-74
2023/01/07 12:51:38;;;;;;;8.77;7.68;;;8.90;99.90;;;;;;4985877;28;20251;-74
2023/01/07 12:54:14;;;;;;;8.80;8.00;;;9.10;99.90;;;;;;4985830;28;20204;-75
2023/01/07 12:56:46;;;;;;;8.13;7.32;;;9.10;99.90;;;;;;4986230;28;20619;-74
2023/01/07 12:59:21;;;;;;;8.68;7.85;;;9.20;99.90;;;;;;4977940;28;20197;-74
2023/01/07 13:01:55;;;;;;;8.38;7.57;;;9.50;99.90;;;;;;4984830;28;20235;-74
2023/01/07 13:04:39;;;;;;;8.18;7.43;;;9.50;99.90;;;;;;4988325;28;20208;-75
2023/01/07 13:07:14;;;;;;;8.95;8.05;;;9.60;99.90;;;;;;4988571;28;20283;-77
2023/01/07 13:09:48;;;;;;;8.43;7.63;;;9.60;99.90;;;;;;4979122;28;20225;-75
2023/01/07 13:15:25;;;;;;;7.75;7.05;;;9.70;99.90;;;;;;4986504;28;20220;-75
2023/01/07 13:17:54;;;;;;;7.88;7.18;;;9.70;99.90;;;;;;4986056;28;20252;-77
2023/01/07 13:20:34;;;;;;;7.95;7.15;;;9.80;99.90;;;;;;4982487;28;20228;-79
2023/01/07 13:23:03;;;;;;;8.50;6.25;;;9.80;99.90;;;;;;4986729;28;20220;-77
2023/01/07 13:25:43;;;;;;;6.50;5.60;;;9.70;99.90;;;;;;4984825;28;20228;-74
2023/01/07 13:28:41;;;;;;;7.00;6.35;;;9.50;99.90;;;;;;4988076;28;20221;-75